sensor_id;sensor_type;location;lat;lon;timestamp;P1;durP1;ratioP1;P2;durP2;ratioP2
20792;SDS011;10556;-33.662;151.094;2023-11-21T00:04:25;0.83;;;0.20;;
20792;SDS011;10556;-33.662;151.094;2023-11-21T00:09:29;0.30;;;0.20;;
20792;SDS011;10556;-33.662;151.094;2023-11-21T00:14:32;0.57;;;0.30;;
20792;SDS011;10556;-33.662;151.094;2023-11-21T00:19:34;1.33;;;0.30;;
20792;SDS011;10556;-33.662;151.094;2023-11-21T00:24:38;1.03;;;0.27;;
20792;SDS011;10556;-33.662;151.094;2023-11-21T00:29:41;1.43;;;0.30;;
20792;SDS011;10556;-33.662;151.094;2023-11-21T00:34:44;0.33;;;0.20;;
20792;SDS011;10556;-33.662;151.094;2023-11-21T00:39:48;1.13;;;0.30;;
20792;SDS011;10556;-33.662;151.094;2023-11-21T00:44:50;0.43;;;0.30;;
20792;SDS011;10556;-33.662;151.094;2023-11-21T00:49:53;1.20;;;0.57;;
20792;SDS011;10556;-33.662;151.094;2023-11-21T00:54:57;2.03;;;0.20;;
20792;SDS011;10556;-33.662;151.094;2023-11-21T01:00:00;0.40;;;0.20;;
20792;SDS011;10556;-33.662;151.094;2023-11-21T01:05:02;0.40;;;0.20;;
20792;SDS011;10556;-33.662;151.094;2023-11-21T01:10:07;0.63;;;0.20;;
20792;SDS011;10556;-33.662;151.094;2023-11-21T01:15:10;0.20;;;0.20;;
20792;SDS011;10556;-33.662;151.094;2023-11-21T01:20:12;0.27;;;0.10;;
20792;SDS011;10556;-33.662;151.094;2023-11-21T01:25:17;0.70;;;0.30;;
20792;SDS011;10556;-33.662;151.094;2023-11-21T01:30:19;1.30;;;0.30;;
20792;SDS011;10556;-33.662;151.094;2023-11-21T01:35:21;0.23;;;0.10;;
20792;SDS011;10556;-33.662;151.094;2023-11-21T01:40:27;1.10;;;0.30;;
20792;SDS011;10556;-33.662;151.094;2023-11-21T01:45:29;0.63;;;0.30;;
20792;SDS011;10556;-33.662;151.094;2023-11-21T01:50:31;0.57;;;0.20;;
20792;SDS011;10556;-33.662;151.094;2023-11-21T01:55:36;0.30;;;0.20;;
20792;SDS011;10556;-33.662;151.094;2023-11-21T02:00:39;1.27;;;0.17;;
20792;SDS011;10556;-33.662;151.094;2023-11-21T02:05:41;0.50;;;0.10;;
20792;SDS011;10556;-33.662;151.094;2023-11-21T02:10:45;1.37;;;0.40;;
20792;SDS011;10556;-33.662;151.094;2023-11-21T02:15:47;0.37;;;0.10;;
20792;SDS011;10556;-33.662;151.094;2023-11-21T02:20:49;1.07;;;0.33;;
20792;SDS011;10556;-33.662;151.094;2023-11-21T02:25:53;0.47;;;0.20;;
20792;SDS011;10556;-33.662;151.094;2023-11-21T02:30:56;1.10;;;0.30;;
20792;SDS011;10556;-33.662;151.094;2023-11-21T02:35:58;0.30;;;0.10;;
20792;SDS011;10556;-33.662;151.094;2023-11-21T02:41:03;0.83;;;0.23;;
20792;SDS011;10556;-33.662;151.094;2023-11-21T02:46:05;0.40;;;0.10;;
20792;SDS011;10556;-33.662;151.094;2023-11-21T02:51:09;0.10;;;0.10;;
20792;SDS011;10556;-33.662;151.094;2023-11-21T02:56:13;0.40;;;0.13;;
20792;SDS011;10556;-33.662;151.094;2023-11-21T03:01:16;0.93;;;0.20;;
20792;SDS011;10556;-33.662;151.094;2023-11-21T03:06:18;0.67;;;0.10;;
20792;SDS011;10556;-33.662;151.094;2023-11-21T03:11:23;0.10;;;0.10;;
20792;SDS011;10556;-33.662;151.094;2023-11-21T03:16:25;0.10;;;0.10;;
20792;SDS011;10556;-33.662;151.094;2023-11-21T03:21:28;0.10;;;0.10;;
20792;SDS011;10556;-33.662;151.094;2023-11-21T03:26:52;0.00;;;0.00;;
20792;SDS011;10556;-33.662;151.094;2023-11-21T03:31:55;0.10;;;0.00;;
20792;SDS011;10556;-33.662;151.094;2023-11-21T03:36:57;0.10;;;0.00;;
20792;SDS011;10556;-33.662;151.094;2023-11-21T03:42:01;0.13;;;0.10;;
20792;SDS011;10556;-33.662;151.094;2023-11-21T03:47:04;0.43;;;0.10;;
20792;SDS011;10556;-33.662;151.094;2023-11-21T03:52:07;0.10;;;0.10;;
20792;SDS011;10556;-33.662;151.094;2023-11-21T03:57:11;0.10;;;0.10;;
20792;SDS011;10556;-33.662;151.094;2023-11-21T04:02:13;0.10;;;0.10;;
20792;SDS011;10556;-33.662;151.094;2023-11-21T04:07:16;0.10;;;0.08;;
20792;SDS011;10556;-33.662;151.094;2023-11-21T04:12:20;0.00;;;0.00;;
20792;SDS011;10556;-33.662;151.094;2023-11-21T04:17:22;0.10;;;0.10;;
20792;SDS011;10556;-33.662;151.094;2023-11-21T04:22:25;0.00;;;0.00;;
20792;SDS011;10556;-33.662;151.094;2023-11-21T04:27:29;0.00;;;0.00;;
20792;SDS011;10556;-33.662;151.094;2023-11-21T04:32:32;0.10;;;0.10;;
20792;SDS011;10556;-33.662;151.094;2023-11-21T04:37:34;0.00;;;0.00;;
20792;SDS011;10556;-33.662;151.094;2023-11-21T04:42:39;0.10;;;0.00;;
20792;SDS011;10556;-33.662;151.094;2023-11-21T04:47:41;0.00;;;0.00;;
20792;SDS011;10556;-33.662;151.094;2023-11-21T04:52:43;0.03;;;0.00;;
20792;SDS011;10556;-33.662;151.094;2023-11-21T04:57:48;0.45;;;0.10;;
20792;SDS011;10556;-33.662;151.094;2023-11-21T05:02:50;0.00;;;0.00;;
20792;SDS011;10556;-33.662;151.094;2023-11-21T05:07:53;0.10;;;0.10;;
20792;SDS011;10556;-33.662;151.094;2023-11-21T05:12:57;0.00;;;0.00;;
20792;SDS011;10556;-33.662;151.094;2023-11-21T05:18:00;0.65;;;0.00;;
20792;SDS011;10556;-33.662;151.094;2023-11-21T05:23:02;0.35;;;0.20;;
20792;SDS011;10556;-33.662;151.094;2023-11-21T05:28:06;0.10;;;0.10;;
20792;SDS011;10556;-33.662;151.094;2023-11-21T05:33:12;0.03;;;0.00;;
20792;SDS011;10556;-33.662;151.094;2023-11-21T05:38:14;0.10;;;0.10;;
20792;SDS011;10556;-33.662;151.094;2023-11-21T05:43:19;0.10;;;0.10;;
20792;SDS011;10556;-33.662;151.094;2023-11-21T05:48:21;0.00;;;0.00;;
20792;SDS011;10556;-33.662;151.094;2023-11-21T05:53:24;0.95;;;0.10;;
20792;SDS011;10556;-33.662;151.094;2023-11-21T05:58:28;0.75;;;0.10;;
20792;SDS011;10556;-33.662;151.094;2023-11-21T06:03:30;0.22;;;0.10;;
20792;SDS011;10556;-33.662;151.094;2023-11-21T06:08:33;0.20;;;0.10;;
20792;SDS011;10556;-33.662;151.094;2023-11-21T06:13:37;0.60;;;0.10;;
20792;SDS011;10556;-33.662;151.094;2023-11-21T06:18:39;0.25;;;0.10;;
20792;SDS011;10556;-33.662;151.094;2023-11-21T06:23:42;1.27;;;0.40;;
20792;SDS011;10556;-33.662;151.094;2023-11-21T06:28:46;0.85;;;0.17;;
20792;SDS011;10556;-33.662;151.094;2023-11-21T06:33:49;0.10;;;0.10;;
20792;SDS011;10556;-33.662;151.094;2023-11-21T06:38:51;0.22;;;0.10;;
20792;SDS011;10556;-33.662;151.094;2023-11-21T06:43:55;0.20;;;0.10;;
20792;SDS011;10556;-33.662;151.094;2023-11-21T06:48:58;0.40;;;0.20;;
20792;SDS011;10556;-33.662;151.094;2023-11-21T06:54:00;0.33;;;0.13;;
20792;SDS011;10556;-33.662;151.094;2023-11-21T06:59:04;0.10;;;0.10;;
20792;SDS011;10556;-33.662;151.094;2023-11-21T07:04:07;0.40;;;0.20;;
20792;SDS011;10556;-33.662;151.094;2023-11-21T07:09:09;0.63;;;0.20;;
20792;SDS011;10556;-33.662;151.094;2023-11-21T07:14:14;1.07;;;0.20;;
20792;SDS011;10556;-33.662;151.094;2023-11-21T07:19:16;0.87;;;0.20;;
20792;SDS011;10556;-33.662;151.094;2023-11-21T07:24:19;0.27;;;0.10;;
20792;SDS011;10556;-33.662;151.094;2023-11-21T07:29:23;0.30;;;0.20;;
20792;SDS011;10556;-33.662;151.094;2023-11-21T07:34:26;0.40;;;0.30;;
20792;SDS011;10556;-33.662;151.094;2023-11-21T07:39:28;0.50;;;0.20;;
20792;SDS011;10556;-33.662;151.094;2023-11-21T07:44:33;0.10;;;0.10;;
20792;SDS011;10556;-33.662;151.094;2023-11-21T07:49:35;2.00;;;0.27;;
20792;SDS011;10556;-33.662;151.094;2023-11-21T07:54:37;0.20;;;0.10;;
20792;SDS011;10556;-33.662;151.094;2023-11-21T07:59:42;0.50;;;0.20;;
20792;SDS011;10556;-33.662;151.094;2023-11-21T08:04:44;0.87;;;0.20;;
20792;SDS011;10556;-33.662;151.094;2023-11-21T08:09:46;1.70;;;0.20;;
20792;SDS011;10556;-33.662;151.094;2023-11-21T08:14:51;0.43;;;0.13;;
20792;SDS011;10556;-33.662;151.094;2023-11-21T08:19:53;1.30;;;0.30;;
20792;SDS011;10556;-33.662;151.094;2023-11-21T08:24:55;0.93;;;0.20;;
20792;SDS011;10556;-33.662;151.094;2023-11-21T08:30:01;0.23;;;0.10;;
20792;SDS011;10556;-33.662;151.094;2023-11-21T08:35:04;0.93;;;0.20;;
20792;SDS011;10556;-33.662;151.094;2023-11-21T08:40:07;1.07;;;0.13;;
20792;SDS011;10556;-33.662;151.094;2023-11-21T08:45:12;0.93;;;0.53;;
20792;SDS011;10556;-33.662;151.094;2023-11-21T08:50:14;3.87;;;0.30;;
20792;SDS011;10556;-33.662;151.094;2023-11-21T08:55:17;3.40;;;0.63;;
20792;SDS011;10556;-33.662;151.094;2023-11-21T09:00:21;0.60;;;0.30;;
20792;SDS011;10556;-33.662;151.094;2023-11-21T09:05:24;3.27;;;0.40;;
20792;SDS011;10556;-33.662;151.094;2023-11-21T09:10:26;1.40;;;0.37;;
20792;SDS011;10556;-33.662;151.094;2023-11-21T09:15:30;0.67;;;0.20;;
20792;SDS011;10556;-33.662;151.094;2023-11-21T09:20:33;2.67;;;0.50;;
20792;SDS011;10556;-33.662;151.094;2023-11-21T09:25:35;0.70;;;0.30;;
20792;SDS011;10556;-33.662;151.094;2023-11-21T09:30:40;1.03;;;0.40;;
20792;SDS011;10556;-33.662;151.094;2023-11-21T09:35:42;3.37;;;0.40;;
20792;SDS011;10556;-33.662;151.094;2023-11-21T09:40:45;0.37;;;0.20;;
20792;SDS011;10556;-33.662;151.094;2023-11-21T09:45:51;0.33;;;0.30;;
20792;SDS011;10556;-33.662;151.094;2023-11-21T09:50:59;0.80;;;0.40;;
20792;SDS011;10556;-33.662;151.094;2023-11-21T09:56:02;0.30;;;0.20;;
20792;SDS011;10556;-33.662;151.094;2023-11-21T10:01:07;0.47;;;0.20;;
20792;SDS011;10556;-33.662;151.094;2023-11-21T10:06:09;1.00;;;0.30;;
20792;SDS011;10556;-33.662;151.094;2023-11-21T10:11:15;0.40;;;0.20;;
20792;SDS011;10556;-33.662;151.094;2023-11-21T10:16:22;1.03;;;0.33;;
20792;SDS011;10556;-33.662;151.094;2023-11-21T10:21:27;1.30;;;0.27;;
20792;SDS011;10556;-33.662;151.094;2023-11-21T10:26:30;0.83;;;0.20;;
20792;SDS011;10556;-33.662;151.094;2023-11-21T10:31:36;0.47;;;0.20;;
20792;SDS011;10556;-33.662;151.094;2023-11-21T10:36:39;1.30;;;0.20;;
20792;SDS011;10556;-33.662;151.094;2023-11-21T10:41:41;0.97;;;0.17;;
20792;SDS011;10556;-33.662;151.094;2023-11-21T10:46:47;1.13;;;0.23;;
20792;SDS011;10556;-33.662;151.094;2023-11-21T10:51:51;0.70;;;0.10;;
20792;SDS011;10556;-33.662;151.094;2023-11-21T10:56:56;0.17;;;0.10;;
20792;SDS011;10556;-33.662;151.094;2023-11-21T11:02:02;2.43;;;0.40;;
20792;SDS011;10556;-33.662;151.094;2023-11-21T11:07:12;0.63;;;0.20;;
20792;SDS011;10556;-33.662;151.094;2023-11-21T11:12:17;0.10;;;0.03;;
20792;SDS011;10556;-33.662;151.094;2023-11-21T11:17:21;0.10;;;0.10;;
20792;SDS011;10556;-33.662;151.094;2023-11-21T11:22:29;0.23;;;0.20;;
20792;SDS011;10556;-33.662;151.094;2023-11-21T11:27:39;0.20;;;0.10;;
20792;SDS011;10556;-33.662;151.094;2023-11-21T11:32:52;0.53;;;0.10;;
20792;SDS011;10556;-33.662;151.094;2023-11-21T11:38:02;0.70;;;0.10;;
20792;SDS011;10556;-33.662;151.094;2023-11-21T11:43:05;2.13;;;0.30;;
20792;SDS011;10556;-33.662;151.094;2023-11-21T11:48:10;0.27;;;0.13;;
20792;SDS011;10556;-33.662;151.094;2023-11-21T11:53:13;0.50;;;0.33;;
20792;SDS011;10556;-33.662;151.094;2023-11-21T11:58:16;1.60;;;0.50;;
20792;SDS011;10556;-33.662;151.094;2023-11-21T12:03:21;1.23;;;0.30;;
20792;SDS011;10556;-33.662;151.094;2023-11-21T12:08:23;0.60;;;0.37;;
20792;SDS011;10556;-33.662;151.094;2023-11-21T12:13:29;1.43;;;0.27;;
20792;SDS011;10556;-33.662;151.094;2023-11-21T12:18:33;1.70;;;0.30;;
20792;SDS011;10556;-33.662;151.094;2023-11-21T12:23:36;1.53;;;0.30;;
20792;SDS011;10556;-33.662;151.094;2023-11-21T12:28:38;0.40;;;0.30;;
20792;SDS011;10556;-33.662;151.094;2023-11-21T12:33:43;0.63;;;0.20;;
20792;SDS011;10556;-33.662;151.094;2023-11-21T12:38:45;0.20;;;0.20;;
20792;SDS011;10556;-33.662;151.094;2023-11-21T12:43:48;0.50;;;0.10;;
20792;SDS011;10556;-33.662;151.094;2023-11-21T12:48:52;0.77;;;0.40;;
20792;SDS011;10556;-33.662;151.094;2023-11-21T12:53:55;0.90;;;0.30;;
20792;SDS011;10556;-33.662;151.094;2023-11-21T12:58:57;0.00;;;0.00;;
20792;SDS011;10556;-33.662;151.094;2023-11-21T13:04:02;1.17;;;0.27;;
20792;SDS011;10556;-33.662;151.094;2023-11-21T13:09:08;0.43;;;0.10;;
20792;SDS011;10556;-33.662;151.094;2023-11-21T13:14:11;3.93;;;0.40;;
20792;SDS011;10556;-33.662;151.094;2023-11-21T13:19:15;1.53;;;0.30;;
20792;SDS011;10556;-33.662;151.094;2023-11-21T13:24:18;0.90;;;0.20;;
20792;SDS011;10556;-33.662;151.094;2023-11-21T13:29:20;0.37;;;0.10;;
20792;SDS011;10556;-33.662;151.094;2023-11-21T13:34:24;0.47;;;0.23;;
20792;SDS011;10556;-33.662;151.094;2023-11-21T13:39:27;1.23;;;0.30;;
20792;SDS011;10556;-33.662;151.094;2023-11-21T13:44:29;1.60;;;0.40;;
20792;SDS011;10556;-33.662;151.094;2023-11-21T13:49:33;1.47;;;0.30;;
20792;SDS011;10556;-33.662;151.094;2023-11-21T13:54:36;0.30;;;0.20;;
20792;SDS011;10556;-33.662;151.094;2023-11-21T13:59:38;0.20;;;0.20;;
20792;SDS011;10556;-33.662;151.094;2023-11-21T14:04:42;0.80;;;0.37;;
20792;SDS011;10556;-33.662;151.094;2023-11-21T14:09:45;1.53;;;0.40;;
20792;SDS011;10556;-33.662;151.094;2023-11-21T14:14:47;1.13;;;0.40;;
20792;SDS011;10556;-33.662;151.094;2023-11-21T14:19:52;1.00;;;0.30;;
20792;SDS011;10556;-33.662;151.094;2023-11-21T14:24:54;3.03;;;0.50;;
20792;SDS011;10556;-33.662;151.094;2023-11-21T14:29:56;0.40;;;0.40;;
20792;SDS011;10556;-33.662;151.094;2023-11-21T14:35:01;0.47;;;0.30;;
20792;SDS011;10556;-33.662;151.094;2023-11-21T14:40:03;2.73;;;0.30;;
20792;SDS011;10556;-33.662;151.094;2023-11-21T14:45:06;0.30;;;0.30;;
20792;SDS011;10556;-33.662;151.094;2023-11-21T14:50:12;0.30;;;0.27;;
20792;SDS011;10556;-33.662;151.094;2023-11-21T14:55:14;0.80;;;0.47;;
20792;SDS011;10556;-33.662;151.094;2023-11-21T15:00:17;0.33;;;0.30;;
20792;SDS011;10556;-33.662;151.094;2023-11-21T15:05:22;1.07;;;0.50;;
20792;SDS011;10556;-33.662;151.094;2023-11-21T15:10:24;0.47;;;0.30;;
20792;SDS011;10556;-33.662;151.094;2023-11-21T15:15:27;2.10;;;0.40;;
20792;SDS011;10556;-33.662;151.094;2023-11-21T15:20:31;0.50;;;0.30;;
20792;SDS011;10556;-33.662;151.094;2023-11-21T15:25:33;0.90;;;0.40;;
20792;SDS011;10556;-33.662;151.094;2023-11-21T15:30:36;0.90;;;0.50;;
20792;SDS011;10556;-33.662;151.094;2023-11-21T15:35:40;0.57;;;0.30;;
20792;SDS011;10556;-33.662;151.094;2023-11-21T15:40:43;0.30;;;0.30;;
20792;SDS011;10556;-33.662;151.094;2023-11-21T15:45:45;0.30;;;0.23;;
20792;SDS011;10556;-33.662;151.094;2023-11-21T15:50:50;0.63;;;0.20;;
20792;SDS011;10556;-33.662;151.094;2023-11-21T15:55:52;0.30;;;0.30;;
20792;SDS011;10556;-33.662;151.094;2023-11-21T16:00:55;0.37;;;0.30;;
20792;SDS011;10556;-33.662;151.094;2023-11-21T16:05:59;0.63;;;0.30;;
20792;SDS011;10556;-33.662;151.094;2023-11-21T16:11:01;0.77;;;0.20;;
20792;SDS011;10556;-33.662;151.094;2023-11-21T16:16:04;0.40;;;0.20;;
20792;SDS011;10556;-33.662;151.094;2023-11-21T16:21:10;0.43;;;0.20;;
20792;SDS011;10556;-33.662;151.094;2023-11-21T16:26:13;0.50;;;0.40;;
20792;SDS011;10556;-33.662;151.094;2023-11-21T16:31:21;1.13;;;0.63;;
20792;SDS011;10556;-33.662;151.094;2023-11-21T16:36:26;0.50;;;0.30;;
20792;SDS011;10556;-33.662;151.094;2023-11-21T16:41:28;1.00;;;0.50;;
20792;SDS011;10556;-33.662;151.094;2023-11-21T16:46:30;1.67;;;0.73;;
20792;SDS011;10556;-33.662;151.094;2023-11-21T16:51:35;0.80;;;0.73;;
20792;SDS011;10556;-33.662;151.094;2023-11-21T16:56:37;1.33;;;1.00;;
20792;SDS011;10556;-33.662;151.094;2023-11-21T17:01:40;1.13;;;0.90;;
20792;SDS011;10556;-33.662;151.094;2023-11-21T17:06:45;1.00;;;0.90;;
20792;SDS011;10556;-33.662;151.094;2023-11-21T17:11:48;1.53;;;0.93;;
20792;SDS011;10556;-33.662;151.094;2023-11-21T17:16:50;1.17;;;0.83;;
20792;SDS011;10556;-33.662;151.094;2023-11-21T17:21:55;1.30;;;0.90;;
20792;SDS011;10556;-33.662;151.094;2023-11-21T17:26:57;1.60;;;1.03;;
20792;SDS011;10556;-33.662;151.094;2023-11-21T17:32:00;1.97;;;1.10;;
20792;SDS011;10556;-33.662;151.094;2023-11-21T17:37:04;1.63;;;0.97;;
20792;SDS011;10556;-33.662;151.094;2023-11-21T17:42:06;2.13;;;1.30;;
20792;SDS011;10556;-33.662;151.094;2023-11-21T17:47:09;2.63;;;1.00;;
20792;SDS011;10556;-33.662;151.094;2023-11-21T17:52:13;1.63;;;1.10;;
20792;SDS011;10556;-33.662;151.094;2023-11-21T17:57:16;2.50;;;1.23;;
20792;SDS011;10556;-33.662;151.094;2023-11-21T18:02:18;1.10;;;1.00;;
20792;SDS011;10556;-33.662;151.094;2023-11-21T18:07:23;1.73;;;1.03;;
20792;SDS011;10556;-33.662;151.094;2023-11-21T18:12:25;1.23;;;1.13;;
20792;SDS011;10556;-33.662;151.094;2023-11-21T18:17:28;3.03;;;1.17;;
20792;SDS011;10556;-33.662;151.094;2023-11-21T18:22:32;1.87;;;1.20;;
20792;SDS011;10556;-33.662;151.094;2023-11-21T18:27:34;1.37;;;1.00;;
20792;SDS011;10556;-33.662;151.094;2023-11-21T18:32:37;2.13;;;1.20;;
20792;SDS011;10556;-33.662;151.094;2023-11-21T18:37:41;2.07;;;1.00;;
20792;SDS011;10556;-33.662;151.094;2023-11-21T18:42:44;3.73;;;1.10;;
20792;SDS011;10556;-33.662;151.094;2023-11-21T18:47:46;2.57;;;0.87;;
20792;SDS011;10556;-33.662;151.094;2023-11-21T18:52:50;4.47;;;1.30;;
20792;SDS011;10556;-33.662;151.094;2023-11-21T18:57:53;1.07;;;0.97;;
20792;SDS011;10556;-33.662;151.094;2023-11-21T19:02:55;1.47;;;1.00;;
20792;SDS011;10556;-33.662;151.094;2023-11-21T19:08:00;2.60;;;1.10;;
20792;SDS011;10556;-33.662;151.094;2023-11-21T19:13:02;1.53;;;0.90;;
20792;SDS011;10556;-33.662;151.094;2023-11-21T19:18:04;2.57;;;1.10;;
20792;SDS011;10556;-33.662;151.094;2023-11-21T19:23:09;1.97;;;1.00;;
20792;SDS011;10556;-33.662;151.094;2023-11-21T19:28:11;1.33;;;1.13;;
20792;SDS011;10556;-33.662;151.094;2023-11-21T19:33:14;1.40;;;1.00;;
20792;SDS011;10556;-33.662;151.094;2023-11-21T19:38:18;1.97;;;1.10;;
20792;SDS011;10556;-33.662;151.094;2023-11-21T19:43:20;2.17;;;0.93;;
20792;SDS011;10556;-33.662;151.094;2023-11-21T19:48:23;1.97;;;1.10;;
20792;SDS011;10556;-33.662;151.094;2023-11-21T19:53:27;2.07;;;1.07;;
20792;SDS011;10556;-33.662;151.094;2023-11-21T19:58:29;1.57;;;0.90;;
20792;SDS011;10556;-33.662;151.094;2023-11-21T20:03:32;1.67;;;0.90;;
20792;SDS011;10556;-33.662;151.094;2023-11-21T20:08:36;1.33;;;1.20;;
20792;SDS011;10556;-33.662;151.094;2023-11-21T20:13:38;1.97;;;1.07;;
20792;SDS011;10556;-33.662;151.094;2023-11-21T20:18:41;1.00;;;0.80;;
20792;SDS011;10556;-33.662;151.094;2023-11-21T20:23:45;1.57;;;0.97;;
20792;SDS011;10556;-33.662;151.094;2023-11-21T20:28:48;0.83;;;0.70;;
20792;SDS011;10556;-33.662;151.094;2023-11-21T20:33:50;2.27;;;0.60;;
20792;SDS011;10556;-33.662;151.094;2023-11-21T20:38:55;2.67;;;0.73;;
20792;SDS011;10556;-33.662;151.094;2023-11-21T20:43:57;0.70;;;0.57;;
20792;SDS011;10556;-33.662;151.094;2023-11-21T20:49:00;1.43;;;0.60;;
20792;SDS011;10556;-33.662;151.094;2023-11-21T20:54:04;1.37;;;0.50;;
20792;SDS011;10556;-33.662;151.094;2023-11-21T20:59:07;1.47;;;0.50;;
20792;SDS011;10556;-33.662;151.094;2023-11-21T21:04:09;1.20;;;0.40;;
20792;SDS011;10556;-33.662;151.094;2023-11-21T21:09:13;0.70;;;0.40;;
20792;SDS011;10556;-33.662;151.094;2023-11-21T21:14:16;0.87;;;0.40;;
20792;SDS011;10556;-33.662;151.094;2023-11-21T21:19:18;0.90;;;0.40;;
20792;SDS011;10556;-33.662;151.094;2023-11-21T21:24:22;0.57;;;0.33;;
20792;SDS011;10556;-33.662;151.094;2023-11-21T21:29:25;3.00;;;0.40;;
20792;SDS011;10556;-33.662;151.094;2023-11-21T21:34:27;1.37;;;0.40;;
20792;SDS011;10556;-33.662;151.094;2023-11-21T21:39:32;0.53;;;0.30;;
20792;SDS011;10556;-33.662;151.094;2023-11-21T21:44:34;1.40;;;0.30;;
20792;SDS011;10556;-33.662;151.094;2023-11-21T21:49:36;0.37;;;0.30;;
20792;SDS011;10556;-33.662;151.094;2023-11-21T21:54:41;0.90;;;0.30;;
20792;SDS011;10556;-33.662;151.094;2023-11-21T21:59:43;0.47;;;0.20;;
20792;SDS011;10556;-33.662;151.094;2023-11-21T22:04:45;0.40;;;0.27;;
20792;SDS011;10556;-33.662;151.094;2023-11-21T22:09:50;2.00;;;0.30;;
20792;SDS011;10556;-33.662;151.094;2023-11-21T22:14:53;0.53;;;0.23;;
20792;SDS011;10556;-33.662;151.094;2023-11-21T22:19:55;0.77;;;0.30;;
20792;SDS011;10556;-33.662;151.094;2023-11-21T22:24:59;0.70;;;0.30;;
20792;SDS011;10556;-33.662;151.094;2023-11-21T22:30:02;0.20;;;0.20;;
20792;SDS011;10556;-33.662;151.094;2023-11-21T22:35:05;0.53;;;0.20;;
20792;SDS011;10556;-33.662;151.094;2023-11-21T22:40:10;1.43;;;0.30;;
20792;SDS011;10556;-33.662;151.094;2023-11-21T22:45:13;0.30;;;0.20;;
20792;SDS011;10556;-33.662;151.094;2023-11-21T22:50:15;0.37;;;0.10;;
20792;SDS011;10556;-33.662;151.094;2023-11-21T22:55:20;0.57;;;0.10;;
20792;SDS011;10556;-33.662;151.094;2023-11-21T23:00:22;1.03;;;0.20;;
20792;SDS011;10556;-33.662;151.094;2023-11-21T23:05:25;0.67;;;0.20;;
20792;SDS011;10556;-33.662;151.094;2023-11-21T23:10:29;0.10;;;0.10;;
20792;SDS011;10556;-33.662;151.094;2023-11-21T23:15:31;0.90;;;0.13;;
20792;SDS011;10556;-33.662;151.094;2023-11-21T23:20:34;0.67;;;0.20;;
20792;SDS011;10556;-33.662;151.094;2023-11-21T23:25:38;1.10;;;0.40;;
20792;SDS011;10556;-33.662;151.094;2023-11-21T23:30:41;0.70;;;0.20;;
20792;SDS011;10556;-33.662;151.094;2023-11-21T23:35:43;0.20;;;0.10;;
20792;SDS011;10556;-33.662;151.094;2023-11-21T23:40:48;0.33;;;0.20;;
20792;SDS011;10556;-33.662;151.094;2023-11-21T23:45:50;1.17;;;0.20;;
20792;SDS011;10556;-33.662;151.094;2023-11-21T23:50:53;0.60;;;0.20;;
20792;SDS011;10556;-33.662;151.094;2023-11-21T23:55:57;0.83;;;0.10;;
